sensor_id;sensor_type;location;lat;lon;timestamp;P1;durP1;ratioP1;P2;durP2;ratioP2
51556;SDS011;38766;53.194;5.532;2023-01-08T00:00:07;7.88;;;6.40;;
51556;SDS011;38766;53.194;5.532;2023-01-08T00:02:33;11.98;;;6.75;;
51556;SDS011;38766;53.194;5.532;2023-01-08T00:04:59;8.93;;;7.47;;
51556;SDS011;38766;53.194;5.532;2023-01-08T00:07:24;12.82;;;7.07;;
51556;SDS011;38766;53.194;5.532;2023-01-08T00:09:50;8.68;;;6.32;;
51556;SDS011;38766;53.194;5.532;2023-01-08T00:12:16;9.90;;;6.18;;
51556;SDS011;38766;53.194;5.532;2023-01-08T00:14:41;10.25;;;6.05;;
51556;SDS011;38766;53.194;5.532;2023-01-08T00:17:07;7.90;;;6.25;;
51556;SDS011;38766;53.194;5.532;2023-01-08T00:19:33;9.07;;;6.50;;
51556;SDS011;38766;53.194;5.532;2023-01-08T00:21:58;8.98;;;6.43;;
51556;SDS011;38766;53.194;5.532;2023-01-08T00:24:24;8.52;;;6.10;;
51556;SDS011;38766;53.194;5.532;2023-01-08T00:26:49;9.38;;;5.80;;
51556;SDS011;38766;53.194;5.532;2023-01-08T00:29:15;8.77;;;5.72;;
51556;SDS011;38766;53.194;5.532;2023-01-08T00:31:40;10.88;;;5.95;;
51556;SDS011;38766;53.194;5.532;2023-01-08T00:34:06;7.25;;;5.38;;
51556;SDS011;38766;53.194;5.532;2023-01-08T00:36:32;8.80;;;5.80;;
51556;SDS011;38766;53.194;5.532;2023-01-08T00:38:57;7.95;;;5.57;;
51556;SDS011;38766;53.194;5.532;2023-01-08T00:41:24;7.20;;;4.68;;
51556;SDS011;38766;53.194;5.532;2023-01-08T00:43:50;8.70;;;4.55;;
51556;SDS011;38766;53.194;5.532;2023-01-08T00:46:15;10.18;;;4.80;;
51556;SDS011;38766;53.194;5.532;2023-01-08T00:48:41;8.30;;;4.35;;
51556;SDS011;38766;53.194;5.532;2023-01-08T00:51:07;7.70;;;4.00;;
51556;SDS011;38766;53.194;5.532;2023-01-08T00:53:33;11.45;;;4.65;;
51556;SDS011;38766;53.194;5.532;2023-01-08T00:56:04;11.52;;;3.38;;
51556;SDS011;38766;53.194;5.532;2023-01-08T00:58:31;14.80;;;3.83;;
51556;SDS011;38766;53.194;5.532;2023-01-08T01:00:57;8.35;;;2.72;;
51556;SDS011;38766;53.194;5.532;2023-01-08T01:03:23;14.00;;;3.38;;
51556;SDS011;38766;53.194;5.532;2023-01-08T01:05:49;12.00;;;3.45;;
51556;SDS011;38766;53.194;5.532;2023-01-08T01:08:15;15.73;;;3.42;;
51556;SDS011;38766;53.194;5.532;2023-01-08T01:10:41;14.73;;;3.00;;
51556;SDS011;38766;53.194;5.532;2023-01-08T01:13:06;15.80;;;2.72;;
51556;SDS011;38766;53.194;5.532;2023-01-08T01:15:32;20.27;;;3.38;;
51556;SDS011;38766;53.194;5.532;2023-01-08T01:17:57;20.17;;;3.65;;
51556;SDS011;38766;53.194;5.532;2023-01-08T01:20:23;17.13;;;3.63;;
51556;SDS011;38766;53.194;5.532;2023-01-08T01:22:49;14.07;;;3.42;;
51556;SDS011;38766;53.194;5.532;2023-01-08T01:25:15;17.05;;;4.28;;
51556;SDS011;38766;53.194;5.532;2023-01-08T01:27:41;14.82;;;3.70;;
51556;SDS011;38766;53.194;5.532;2023-01-08T01:30:06;22.35;;;4.10;;
51556;SDS011;38766;53.194;5.532;2023-01-08T01:32:32;17.30;;;3.90;;
51556;SDS011;38766;53.194;5.532;2023-01-08T01:34:58;14.57;;;3.38;;
51556;SDS011;38766;53.194;5.532;2023-01-08T01:37:24;17.60;;;3.85;;
51556;SDS011;38766;53.194;5.532;2023-01-08T01:39:50;18.65;;;4.13;;
51556;SDS011;38766;53.194;5.532;2023-01-08T01:42:16;23.50;;;4.15;;
51556;SDS011;38766;53.194;5.532;2023-01-08T01:47:48;20.45;;;3.83;;
51556;SDS011;38766;53.194;5.532;2023-01-08T01:50:34;17.35;;;4.47;;
51556;SDS011;38766;53.194;5.532;2023-01-08T01:53:14;22.65;;;4.22;;
51556;SDS011;38766;53.194;5.532;2023-01-08T01:55:45;23.75;;;3.67;;
51556;SDS011;38766;53.194;5.532;2023-01-08T01:58:13;15.15;;;4.18;;
51556;SDS011;38766;53.194;5.532;2023-01-08T02:00:45;11.73;;;2.80;;
51556;SDS011;38766;53.194;5.532;2023-01-08T02:03:12;19.73;;;4.07;;
51556;SDS011;38766;53.194;5.532;2023-01-08T02:11:38;15.20;;;3.45;;
51556;SDS011;38766;53.194;5.532;2023-01-08T02:14:41;18.70;;;3.60;;
51556;SDS011;38766;53.194;5.532;2023-01-08T02:17:20;14.45;;;2.97;;
51556;SDS011;38766;53.194;5.532;2023-01-08T02:19:57;20.55;;;3.30;;
51556;SDS011;38766;53.194;5.532;2023-01-08T02:25:33;26.25;;;4.22;;
51556;SDS011;38766;53.194;5.532;2023-01-08T02:28:20;16.00;;;3.30;;
51556;SDS011;38766;53.194;5.532;2023-01-08T02:30:46;22.45;;;3.30;;
51556;SDS011;38766;53.194;5.532;2023-01-08T02:33:13;18.45;;;3.38;;
51556;SDS011;38766;53.194;5.532;2023-01-08T02:35:40;20.48;;;3.92;;
51556;SDS011;38766;53.194;5.532;2023-01-08T02:38:11;16.50;;;3.58;;
51556;SDS011;38766;53.194;5.532;2023-01-08T02:40:41;22.20;;;3.92;;
51556;SDS011;38766;53.194;5.532;2023-01-08T02:43:20;14.68;;;2.65;;
51556;SDS011;38766;53.194;5.532;2023-01-08T02:45:57;18.98;;;2.88;;
51556;SDS011;38766;53.194;5.532;2023-01-08T02:48:37;14.98;;;2.53;;
51556;SDS011;38766;53.194;5.532;2023-01-08T02:51:16;14.02;;;2.90;;
51556;SDS011;38766;53.194;5.532;2023-01-08T02:54:00;13.40;;;2.70;;
51556;SDS011;38766;53.194;5.532;2023-01-08T02:56:30;12.48;;;2.72;;
51556;SDS011;38766;53.194;5.532;2023-01-08T02:59:01;11.10;;;2.78;;
51556;SDS011;38766;53.194;5.532;2023-01-08T03:01:29;11.77;;;2.55;;
51556;SDS011;38766;53.194;5.532;2023-01-08T03:03:57;11.40;;;2.80;;
51556;SDS011;38766;53.194;5.532;2023-01-08T03:06:27;16.67;;;3.08;;
51556;SDS011;38766;53.194;5.532;2023-01-08T03:08:54;14.70;;;3.13;;
51556;SDS011;38766;53.194;5.532;2023-01-08T03:11:21;17.83;;;3.65;;
51556;SDS011;38766;53.194;5.532;2023-01-08T03:16:50;11.20;;;2.75;;
51556;SDS011;38766;53.194;5.532;2023-01-08T03:19:27;11.60;;;2.97;;
51556;SDS011;38766;53.194;5.532;2023-01-08T03:22:07;12.88;;;3.22;;
51556;SDS011;38766;53.194;5.532;2023-01-08T03:24:36;13.55;;;3.50;;
51556;SDS011;38766;53.194;5.532;2023-01-08T03:27:03;13.43;;;3.13;;
51556;SDS011;38766;53.194;5.532;2023-01-08T03:29:33;18.33;;;3.15;;
51556;SDS011;38766;53.194;5.532;2023-01-08T03:32:03;11.55;;;2.85;;
51556;SDS011;38766;53.194;5.532;2023-01-08T03:34:34;12.10;;;2.83;;
51556;SDS011;38766;53.194;5.532;2023-01-08T03:37:03;13.85;;;3.67;;
51556;SDS011;38766;53.194;5.532;2023-01-08T03:40:18;14.05;;;2.88;;
51556;SDS011;38766;53.194;5.532;2023-01-08T03:42:22;16.02;;;2.85;;
51556;SDS011;38766;53.194;5.532;2023-01-08T03:44:50;11.30;;;2.40;;
51556;SDS011;38766;53.194;5.532;2023-01-08T03:47:16;8.05;;;2.60;;
51556;SDS011;38766;53.194;5.532;2023-01-08T03:49:43;11.13;;;3.10;;
51556;SDS011;38766;53.194;5.532;2023-01-08T03:52:21;7.50;;;2.75;;
51556;SDS011;38766;53.194;5.532;2023-01-08T03:54:48;10.27;;;3.22;;
51556;SDS011;38766;53.194;5.532;2023-01-08T03:57:13;9.27;;;2.95;;
51556;SDS011;38766;53.194;5.532;2023-01-08T03:59:39;6.95;;;2.75;;
51556;SDS011;38766;53.194;5.532;2023-01-08T04:02:04;6.07;;;2.65;;
51556;SDS011;38766;53.194;5.532;2023-01-08T04:04:30;5.32;;;2.55;;
51556;SDS011;38766;53.194;5.532;2023-01-08T04:06:56;8.93;;;3.53;;
51556;SDS011;38766;53.194;5.532;2023-01-08T04:09:21;12.25;;;3.22;;
51556;SDS011;38766;53.194;5.532;2023-01-08T04:11:47;9.07;;;3.05;;
51556;SDS011;38766;53.194;5.532;2023-01-08T04:14:12;13.70;;;3.55;;
51556;SDS011;38766;53.194;5.532;2023-01-08T04:16:38;13.35;;;3.50;;
51556;SDS011;38766;53.194;5.532;2023-01-08T04:19:03;7.95;;;3.38;;
51556;SDS011;38766;53.194;5.532;2023-01-08T04:21:29;10.45;;;3.40;;
51556;SDS011;38766;53.194;5.532;2023-01-08T04:23:55;8.80;;;3.20;;
51556;SDS011;38766;53.194;5.532;2023-01-08T04:26:20;9.80;;;3.40;;
51556;SDS011;38766;53.194;5.532;2023-01-08T04:28:46;10.73;;;4.13;;
51556;SDS011;38766;53.194;5.532;2023-01-08T04:31:11;10.60;;;3.88;;
51556;SDS011;38766;53.194;5.532;2023-01-08T04:33:37;11.68;;;3.30;;
51556;SDS011;38766;53.194;5.532;2023-01-08T04:36:03;8.77;;;3.55;;
51556;SDS011;38766;53.194;5.532;2023-01-08T04:38:29;7.03;;;3.55;;
51556;SDS011;38766;53.194;5.532;2023-01-08T04:40:56;9.00;;;3.75;;
51556;SDS011;38766;53.194;5.532;2023-01-08T04:43:22;8.50;;;3.35;;
51556;SDS011;38766;53.194;5.532;2023-01-08T04:45:48;7.78;;;3.05;;
51556;SDS011;38766;53.194;5.532;2023-01-08T04:48:14;6.60;;;3.25;;
51556;SDS011;38766;53.194;5.532;2023-01-08T04:50:39;7.43;;;2.78;;
51556;SDS011;38766;53.194;5.532;2023-01-08T04:53:05;9.52;;;3.03;;
51556;SDS011;38766;53.194;5.532;2023-01-08T04:55:31;8.32;;;2.88;;
51556;SDS011;38766;53.194;5.532;2023-01-08T04:57:57;9.30;;;3.53;;
51556;SDS011;38766;53.194;5.532;2023-01-08T05:00:23;7.18;;;2.50;;
51556;SDS011;38766;53.194;5.532;2023-01-08T05:02:48;5.68;;;2.67;;
51556;SDS011;38766;53.194;5.532;2023-01-08T05:05:14;6.55;;;2.60;;
51556;SDS011;38766;53.194;5.532;2023-01-08T05:07:40;8.32;;;3.03;;
51556;SDS011;38766;53.194;5.532;2023-01-08T05:10:05;6.50;;;3.08;;
51556;SDS011;38766;53.194;5.532;2023-01-08T05:12:32;4.95;;;3.00;;
51556;SDS011;38766;53.194;5.532;2023-01-08T05:14:57;7.07;;;2.33;;
51556;SDS011;38766;53.194;5.532;2023-01-08T05:17:23;7.22;;;2.97;;
51556;SDS011;38766;53.194;5.532;2023-01-08T05:19:48;10.90;;;3.40;;
51556;SDS011;38766;53.194;5.532;2023-01-08T05:22:14;8.55;;;2.72;;
51556;SDS011;38766;53.194;5.532;2023-01-08T05:24:39;12.18;;;3.63;;
51556;SDS011;38766;53.194;5.532;2023-01-08T05:27:05;8.48;;;2.80;;
51556;SDS011;38766;53.194;5.532;2023-01-08T05:29:31;9.93;;;3.08;;
51556;SDS011;38766;53.194;5.532;2023-01-08T05:31:56;8.32;;;2.70;;
51556;SDS011;38766;53.194;5.532;2023-01-08T05:34:22;8.95;;;3.08;;
51556;SDS011;38766;53.194;5.532;2023-01-08T05:36:48;9.63;;;3.08;;
51556;SDS011;38766;53.194;5.532;2023-01-08T05:39:13;7.90;;;2.75;;
51556;SDS011;38766;53.194;5.532;2023-01-08T05:41:39;12.55;;;2.88;;
51556;SDS011;38766;53.194;5.532;2023-01-08T05:44:04;8.57;;;2.75;;
51556;SDS011;38766;53.194;5.532;2023-01-08T05:46:30;7.18;;;2.50;;
51556;SDS011;38766;53.194;5.532;2023-01-08T05:48:56;7.82;;;2.30;;
51556;SDS011;38766;53.194;5.532;2023-01-08T05:51:21;8.43;;;2.67;;
51556;SDS011;38766;53.194;5.532;2023-01-08T05:53:47;8.05;;;2.60;;
51556;SDS011;38766;53.194;5.532;2023-01-08T05:56:13;5.25;;;2.20;;
51556;SDS011;38766;53.194;5.532;2023-01-08T05:58:38;7.35;;;2.60;;
51556;SDS011;38766;53.194;5.532;2023-01-08T06:01:05;8.00;;;2.30;;
51556;SDS011;38766;53.194;5.532;2023-01-08T06:03:33;7.63;;;2.58;;
51556;SDS011;38766;53.194;5.532;2023-01-08T06:05:59;4.53;;;2.10;;
51556;SDS011;38766;53.194;5.532;2023-01-08T06:08:26;9.30;;;2.67;;
51556;SDS011;38766;53.194;5.532;2023-01-08T06:10:52;9.20;;;2.40;;
51556;SDS011;38766;53.194;5.532;2023-01-08T06:13:18;9.70;;;2.35;;
51556;SDS011;38766;53.194;5.532;2023-01-08T06:15:44;12.15;;;2.85;;
51556;SDS011;38766;53.194;5.532;2023-01-08T06:18:09;8.80;;;2.28;;
51556;SDS011;38766;53.194;5.532;2023-01-08T06:20:35;9.52;;;2.85;;
51556;SDS011;38766;53.194;5.532;2023-01-08T06:23:01;8.85;;;2.28;;
51556;SDS011;38766;53.194;5.532;2023-01-08T06:25:27;8.48;;;2.30;;
51556;SDS011;38766;53.194;5.532;2023-01-08T06:27:53;13.88;;;2.95;;
51556;SDS011;38766;53.194;5.532;2023-01-08T06:30:19;7.93;;;2.67;;
51556;SDS011;38766;53.194;5.532;2023-01-08T06:32:45;8.73;;;2.53;;
51556;SDS011;38766;53.194;5.532;2023-01-08T06:35:10;9.02;;;2.80;;
51556;SDS011;38766;53.194;5.532;2023-01-08T06:37:36;11.40;;;2.47;;
51556;SDS011;38766;53.194;5.532;2023-01-08T06:40:01;13.07;;;3.47;;
51556;SDS011;38766;53.194;5.532;2023-01-08T06:42:27;10.60;;;2.22;;
51556;SDS011;38766;53.194;5.532;2023-01-08T06:44:53;10.77;;;2.42;;
51556;SDS011;38766;53.194;5.532;2023-01-08T06:47:18;7.35;;;2.25;;
51556;SDS011;38766;53.194;5.532;2023-01-08T06:49:44;11.57;;;2.40;;
51556;SDS011;38766;53.194;5.532;2023-01-08T06:52:09;9.98;;;2.90;;
51556;SDS011;38766;53.194;5.532;2023-01-08T06:54:35;9.02;;;2.50;;
51556;SDS011;38766;53.194;5.532;2023-01-08T06:57:01;11.65;;;2.30;;
51556;SDS011;38766;53.194;5.532;2023-01-08T06:59:26;11.43;;;3.65;;
51556;SDS011;38766;53.194;5.532;2023-01-08T07:01:52;11.75;;;2.97;;
51556;SDS011;38766;53.194;5.532;2023-01-08T07:04:18;10.73;;;2.97;;
51556;SDS011;38766;53.194;5.532;2023-01-08T07:06:43;8.10;;;3.05;;
51556;SDS011;38766;53.194;5.532;2023-01-08T07:09:13;10.38;;;2.50;;
51556;SDS011;38766;53.194;5.532;2023-01-08T07:11:42;13.23;;;3.03;;
51556;SDS011;38766;53.194;5.532;2023-01-08T07:14:07;13.38;;;2.90;;
51556;SDS011;38766;53.194;5.532;2023-01-08T07:16:33;12.85;;;3.10;;
51556;SDS011;38766;53.194;5.532;2023-01-08T07:19:00;15.73;;;3.83;;
51556;SDS011;38766;53.194;5.532;2023-01-08T07:21:25;14.63;;;3.10;;
51556;SDS011;38766;53.194;5.532;2023-01-08T07:23:51;13.00;;;2.28;;
51556;SDS011;38766;53.194;5.532;2023-01-08T07:26:16;11.13;;;2.90;;
51556;SDS011;38766;53.194;5.532;2023-01-08T07:28:42;9.38;;;2.50;;
51556;SDS011;38766;53.194;5.532;2023-01-08T07:31:08;10.73;;;2.50;;
51556;SDS011;38766;53.194;5.532;2023-01-08T07:33:34;14.30;;;2.53;;
51556;SDS011;38766;53.194;5.532;2023-01-08T07:36:00;11.45;;;2.88;;
51556;SDS011;38766;53.194;5.532;2023-01-08T07:38:26;6.85;;;2.33;;
51556;SDS011;38766;53.194;5.532;2023-01-08T07:40:52;7.75;;;2.75;;
51556;SDS011;38766;53.194;5.532;2023-01-08T07:43:18;11.27;;;3.42;;
51556;SDS011;38766;53.194;5.532;2023-01-08T07:45:43;9.20;;;2.20;;
51556;SDS011;38766;53.194;5.532;2023-01-08T07:48:09;9.75;;;2.65;;
51556;SDS011;38766;53.194;5.532;2023-01-08T07:50:39;8.07;;;2.75;;
51556;SDS011;38766;53.194;5.532;2023-01-08T07:53:05;6.53;;;2.47;;
51556;SDS011;38766;53.194;5.532;2023-01-08T07:55:31;8.48;;;2.60;;
51556;SDS011;38766;53.194;5.532;2023-01-08T07:57:57;10.43;;;2.85;;
51556;SDS011;38766;53.194;5.532;2023-01-08T08:00:23;11.88;;;3.08;;
51556;SDS011;38766;53.194;5.532;2023-01-08T08:02:48;9.82;;;2.78;;
51556;SDS011;38766;53.194;5.532;2023-01-08T08:05:14;10.82;;;2.92;;
51556;SDS011;38766;53.194;5.532;2023-01-08T08:07:41;12.43;;;3.20;;
51556;SDS011;38766;53.194;5.532;2023-01-08T08:10:07;10.65;;;2.70;;
51556;SDS011;38766;53.194;5.532;2023-01-08T08:12:33;9.80;;;2.65;;
51556;SDS011;38766;53.194;5.532;2023-01-08T08:14:59;7.60;;;2.92;;
51556;SDS011;38766;53.194;5.532;2023-01-08T08:17:24;12.80;;;3.00;;
51556;SDS011;38766;53.194;5.532;2023-01-08T08:19:50;10.15;;;2.85;;
51556;SDS011;38766;53.194;5.532;2023-01-08T08:22:16;9.43;;;2.72;;
51556;SDS011;38766;53.194;5.532;2023-01-08T08:24:42;10.65;;;3.05;;
51556;SDS011;38766;53.194;5.532;2023-01-08T08:27:07;8.20;;;2.65;;
51556;SDS011;38766;53.194;5.532;2023-01-08T08:29:33;14.23;;;3.10;;
51556;SDS011;38766;53.194;5.532;2023-01-08T08:31:58;10.65;;;3.20;;
51556;SDS011;38766;53.194;5.532;2023-01-08T08:34:24;9.25;;;3.20;;
51556;SDS011;38766;53.194;5.532;2023-01-08T08:36:50;8.00;;;2.50;;
51556;SDS011;38766;53.194;5.532;2023-01-08T08:39:16;14.55;;;2.80;;
51556;SDS011;38766;53.194;5.532;2023-01-08T08:41:41;5.40;;;2.67;;
51556;SDS011;38766;53.194;5.532;2023-01-08T08:44:07;18.25;;;3.47;;
51556;SDS011;38766;53.194;5.532;2023-01-08T08:46:33;8.77;;;2.72;;
51556;SDS011;38766;53.194;5.532;2023-01-08T08:48:59;8.40;;;2.75;;
51556;SDS011;38766;53.194;5.532;2023-01-08T08:51:24;19.42;;;3.20;;
51556;SDS011;38766;53.194;5.532;2023-01-08T08:53:50;13.13;;;2.78;;
51556;SDS011;38766;53.194;5.532;2023-01-08T08:56:16;10.00;;;3.20;;
51556;SDS011;38766;53.194;5.532;2023-01-08T08:58:41;7.22;;;2.45;;
51556;SDS011;38766;53.194;5.532;2023-01-08T09:01:09;12.30;;;3.58;;
51556;SDS011;38766;53.194;5.532;2023-01-08T09:03:35;10.77;;;3.17;;
51556;SDS011;38766;53.194;5.532;2023-01-08T09:06:01;10.00;;;3.50;;
51556;SDS011;38766;53.194;5.532;2023-01-08T09:08:26;9.70;;;2.92;;
51556;SDS011;38766;53.194;5.532;2023-01-08T09:10:52;11.85;;;3.10;;
51556;SDS011;38766;53.194;5.532;2023-01-08T09:13:18;11.38;;;3.67;;
51556;SDS011;38766;53.194;5.532;2023-01-08T09:15:43;13.73;;;3.30;;
51556;SDS011;38766;53.194;5.532;2023-01-08T09:18:09;7.63;;;3.08;;
51556;SDS011;38766;53.194;5.532;2023-01-08T09:20:35;9.70;;;3.17;;
51556;SDS011;38766;53.194;5.532;2023-01-08T09:23:01;12.82;;;3.30;;
51556;SDS011;38766;53.194;5.532;2023-01-08T09:25:27;8.30;;;3.30;;
51556;SDS011;38766;53.194;5.532;2023-01-08T09:30:27;11.10;;;3.40;;
51556;SDS011;38766;53.194;5.532;2023-01-08T09:32:56;7.53;;;2.58;;
51556;SDS011;38766;53.194;5.532;2023-01-08T09:35:23;7.93;;;2.80;;
51556;SDS011;38766;53.194;5.532;2023-01-08T09:37:49;9.10;;;2.83;;
51556;SDS011;38766;53.194;5.532;2023-01-08T09:40:19;7.70;;;2.60;;
51556;SDS011;38766;53.194;5.532;2023-01-08T09:42:54;13.10;;;3.47;;
51556;SDS011;38766;53.194;5.532;2023-01-08T09:45:26;10.52;;;2.97;;
51556;SDS011;38766;53.194;5.532;2023-01-08T09:47:53;13.10;;;2.95;;
51556;SDS011;38766;53.194;5.532;2023-01-08T09:50:23;11.52;;;2.90;;
51556;SDS011;38766;53.194;5.532;2023-01-08T09:52:51;14.05;;;2.58;;
51556;SDS011;38766;53.194;5.532;2023-01-08T09:55:17;10.93;;;2.88;;
51556;SDS011;38766;53.194;5.532;2023-01-08T09:57:43;7.15;;;2.60;;
51556;SDS011;38766;53.194;5.532;2023-01-08T10:00:13;8.30;;;2.90;;
51556;SDS011;38766;53.194;5.532;2023-01-08T10:02:47;11.20;;;2.42;;
51556;SDS011;38766;53.194;5.532;2023-01-08T10:05:14;11.55;;;2.60;;
51556;SDS011;38766;53.194;5.532;2023-01-08T10:07:42;11.05;;;2.80;;
51556;SDS011;38766;53.194;5.532;2023-01-08T10:10:19;12.20;;;2.83;;
51556;SDS011;38766;53.194;5.532;2023-01-08T10:12:50;10.63;;;2.80;;
51556;SDS011;38766;53.194;5.532;2023-01-08T10:15:17;11.27;;;2.50;;
51556;SDS011;38766;53.194;5.532;2023-01-08T10:17:47;12.27;;;2.80;;
51556;SDS011;38766;53.194;5.532;2023-01-08T10:20:17;8.48;;;2.80;;
51556;SDS011;38766;53.194;5.532;2023-01-08T10:22:45;8.43;;;2.65;;
51556;SDS011;38766;53.194;5.532;2023-01-08T10:25:19;9.05;;;2.70;;
51556;SDS011;38766;53.194;5.532;2023-01-08T10:32:55;10.93;;;2.53;;
51556;SDS011;38766;53.194;5.532;2023-01-08T10:35:30;10.48;;;2.38;;
51556;SDS011;38766;53.194;5.532;2023-01-08T10:38:20;13.48;;;3.13;;
51556;SDS011;38766;53.194;5.532;2023-01-08T10:40:49;8.23;;;2.65;;
51556;SDS011;38766;53.194;5.532;2023-01-08T10:46:00;6.70;;;2.78;;
51556;SDS011;38766;53.194;5.532;2023-01-08T10:48:36;9.13;;;3.15;;
51556;SDS011;38766;53.194;5.532;2023-01-08T10:51:12;10.07;;;2.60;;
51556;SDS011;38766;53.194;5.532;2023-01-08T10:53:40;8.15;;;2.40;;
51556;SDS011;38766;53.194;5.532;2023-01-08T10:56:15;9.35;;;2.15;;
51556;SDS011;38766;53.194;5.532;2023-01-08T10:58:46;12.63;;;2.30;;
51556;SDS011;38766;53.194;5.532;2023-01-08T11:01:15;19.40;;;3.40;;
51556;SDS011;38766;53.194;5.532;2023-01-08T11:03:56;10.77;;;2.42;;
51556;SDS011;38766;53.194;5.532;2023-01-08T11:06:25;12.00;;;3.03;;
51556;SDS011;38766;53.194;5.532;2023-01-08T11:08:59;11.57;;;2.72;;
51556;SDS011;38766;53.194;5.532;2023-01-08T11:11:31;11.30;;;2.00;;
51556;SDS011;38766;53.194;5.532;2023-01-08T11:14:20;13.27;;;3.42;;
51556;SDS011;38766;53.194;5.532;2023-01-08T11:17:10;7.43;;;2.53;;
51556;SDS011;38766;53.194;5.532;2023-01-08T11:19:36;8.38;;;2.40;;
51556;SDS011;38766;53.194;5.532;2023-01-08T11:22:19;6.30;;;2.42;;
51556;SDS011;38766;53.194;5.532;2023-01-08T11:24:47;11.70;;;2.50;;
51556;SDS011;38766;53.194;5.532;2023-01-08T11:27:15;11.40;;;2.47;;
51556;SDS011;38766;53.194;5.532;2023-01-08T11:35:03;10.00;;;2.28;;
51556;SDS011;38766;53.194;5.532;2023-01-08T11:37:38;8.85;;;2.90;;
51556;SDS011;38766;53.194;5.532;2023-01-08T11:40:14;8.07;;;2.25;;
51556;SDS011;38766;53.194;5.532;2023-01-08T11:53:55;11.05;;;2.97;;
51556;SDS011;38766;53.194;5.532;2023-01-08T12:02:06;6.03;;;2.20;;
51556;SDS011;38766;53.194;5.532;2023-01-08T12:10:34;7.43;;;2.58;;
51556;SDS011;38766;53.194;5.532;2023-01-08T12:13:18;10.02;;;2.80;;
51556;SDS011;38766;53.194;5.532;2023-01-08T12:21:19;10.55;;;2.85;;
51556;SDS011;38766;53.194;5.532;2023-01-08T12:24:01;12.75;;;3.10;;
51556;SDS011;38766;53.194;5.532;2023-01-08T12:32:31;8.88;;;3.30;;
51556;SDS011;38766;53.194;5.532;2023-01-08T12:35:04;11.32;;;3.78;;
51556;SDS011;38766;53.194;5.532;2023-01-08T12:38:00;13.23;;;3.30;;
51556;SDS011;38766;53.194;5.532;2023-01-08T12:40:41;9.63;;;3.22;;
51556;SDS011;38766;53.194;5.532;2023-01-08T12:43:13;9.98;;;3.20;;
51556;SDS011;38766;53.194;5.532;2023-01-08T12:45:45;10.85;;;3.25;;
51556;SDS011;38766;53.194;5.532;2023-01-08T12:48:17;10.75;;;3.13;;
51556;SDS011;38766;53.194;5.532;2023-01-08T12:50:55;6.32;;;2.88;;
51556;SDS011;38766;53.194;5.532;2023-01-08T12:56:27;10.93;;;3.13;;
51556;SDS011;38766;53.194;5.532;2023-01-08T13:04:13;11.65;;;4.15;;
51556;SDS011;38766;53.194;5.532;2023-01-08T13:06:48;10.65;;;3.72;;
51556;SDS011;38766;53.194;5.532;2023-01-08T13:09:27;10.93;;;3.58;;
51556;SDS011;38766;53.194;5.532;2023-01-08T13:11:54;8.77;;;3.50;;
51556;SDS011;38766;53.194;5.532;2023-01-08T13:14:21;10.73;;;3.30;;
51556;SDS011;38766;53.194;5.532;2023-01-08T13:16:47;7.03;;;3.90;;
51556;SDS011;38766;53.194;5.532;2023-01-08T13:19:26;11.07;;;3.55;;
51556;SDS011;38766;53.194;5.532;2023-01-08T13:21:55;10.43;;;4.15;;
51556;SDS011;38766;53.194;5.532;2023-01-08T13:29:44;12.23;;;3.42;;
51556;SDS011;38766;53.194;5.532;2023-01-08T13:37:41;9.82;;;3.60;;
51556;SDS011;38766;53.194;5.532;2023-01-08T13:43:03;10.60;;;3.67;;
51556;SDS011;38766;53.194;5.532;2023-01-08T13:45:35;6.88;;;3.05;;
51556;SDS011;38766;53.194;5.532;2023-01-08T13:48:01;9.02;;;3.97;;
51556;SDS011;38766;53.194;5.532;2023-01-08T13:50:27;6.97;;;3.63;;
51556;SDS011;38766;53.194;5.532;2023-01-08T13:52:58;12.32;;;3.00;;
51556;SDS011;38766;53.194;5.532;2023-01-08T13:55:34;10.52;;;3.40;;
51556;SDS011;38766;53.194;5.532;2023-01-08T13:58:03;9.77;;;3.58;;
51556;SDS011;38766;53.194;5.532;2023-01-08T14:00:43;9.90;;;3.22;;
51556;SDS011;38766;53.194;5.532;2023-01-08T14:05:46;10.63;;;3.35;;
51556;SDS011;38766;53.194;5.532;2023-01-08T14:08:24;9.93;;;3.13;;
51556;SDS011;38766;53.194;5.532;2023-01-08T14:10:51;13.43;;;3.50;;
51556;SDS011;38766;53.194;5.532;2023-01-08T14:13:25;7.35;;;3.15;;
51556;SDS011;38766;53.194;5.532;2023-01-08T14:15:58;10.98;;;2.90;;
51556;SDS011;38766;53.194;5.532;2023-01-08T14:18:27;9.45;;;3.50;;
51556;SDS011;38766;53.194;5.532;2023-01-08T14:20:53;13.73;;;3.10;;
51556;SDS011;38766;53.194;5.532;2023-01-08T14:23:24;9.80;;;2.97;;
51556;SDS011;38766;53.194;5.532;2023-01-08T14:25:51;10.30;;;3.15;;
51556;SDS011;38766;53.194;5.532;2023-01-08T14:28:19;6.60;;;2.80;;
51556;SDS011;38766;53.194;5.532;2023-01-08T14:30:56;9.05;;;2.60;;
51556;SDS011;38766;53.194;5.532;2023-01-08T14:33:29;12.30;;;3.70;;
51556;SDS011;38766;53.194;5.532;2023-01-08T14:35:58;9.73;;;3.15;;
51556;SDS011;38766;53.194;5.532;2023-01-08T14:38:25;12.70;;;3.50;;
51556;SDS011;38766;53.194;5.532;2023-01-08T14:41:06;6.63;;;2.72;;
51556;SDS011;38766;53.194;5.532;2023-01-08T14:43:43;12.77;;;2.90;;
51556;SDS011;38766;53.194;5.532;2023-01-08T14:46:16;8.07;;;3.10;;
51556;SDS011;38766;53.194;5.532;2023-01-08T14:48:48;8.48;;;2.63;;
51556;SDS011;38766;53.194;5.532;2023-01-08T14:51:19;11.02;;;2.97;;
51556;SDS011;38766;53.194;5.532;2023-01-08T14:53:48;8.43;;;2.95;;
51556;SDS011;38766;53.194;5.532;2023-01-08T14:56:26;8.07;;;3.08;;
51556;SDS011;38766;53.194;5.532;2023-01-08T14:58:59;8.00;;;2.85;;
51556;SDS011;38766;53.194;5.532;2023-01-08T15:01:25;9.35;;;3.30;;
51556;SDS011;38766;53.194;5.532;2023-01-08T15:04:04;10.30;;;3.55;;
51556;SDS011;38766;53.194;5.532;2023-01-08T15:06:32;9.77;;;3.30;;
51556;SDS011;38766;53.194;5.532;2023-01-08T15:08:58;8.13;;;2.85;;
51556;SDS011;38766;53.194;5.532;2023-01-08T15:11:28;5.82;;;2.55;;
51556;SDS011;38766;53.194;5.532;2023-01-08T15:13:55;10.50;;;3.20;;
51556;SDS011;38766;53.194;5.532;2023-01-08T15:19:04;7.57;;;2.90;;
51556;SDS011;38766;53.194;5.532;2023-01-08T15:21:31;8.68;;;3.33;;
51556;SDS011;38766;53.194;5.532;2023-01-08T15:23:58;9.73;;;3.47;;
51556;SDS011;38766;53.194;5.532;2023-01-08T15:26:26;6.07;;;2.80;;
51556;SDS011;38766;53.194;5.532;2023-01-08T15:31:22;10.35;;;4.20;;
51556;SDS011;38766;53.194;5.532;2023-01-08T15:33:49;8.45;;;3.60;;
51556;SDS011;38766;53.194;5.532;2023-01-08T15:36:15;8.43;;;3.70;;
51556;SDS011;38766;53.194;5.532;2023-01-08T15:38:40;9.00;;;3.63;;
51556;SDS011;38766;53.194;5.532;2023-01-08T15:41:08;8.45;;;4.25;;
51556;SDS011;38766;53.194;5.532;2023-01-08T15:44:02;10.43;;;4.30;;
51556;SDS011;38766;53.194;5.532;2023-01-08T15:46:28;10.10;;;3.88;;
51556;SDS011;38766;53.194;5.532;2023-01-08T15:48:54;6.57;;;3.40;;
51556;SDS011;38766;53.194;5.532;2023-01-08T15:51:19;7.30;;;3.65;;
51556;SDS011;38766;53.194;5.532;2023-01-08T15:53:45;9.80;;;5.85;;
51556;SDS011;38766;53.194;5.532;2023-01-08T15:56:10;6.03;;;3.53;;
51556;SDS011;38766;53.194;5.532;2023-01-08T15:58:36;6.40;;;3.40;;
51556;SDS011;38766;53.194;5.532;2023-01-08T16:01:02;7.57;;;3.35;;
51556;SDS011;38766;53.194;5.532;2023-01-08T16:03:27;5.57;;;3.10;;
51556;SDS011;38766;53.194;5.532;2023-01-08T16:05:54;7.43;;;3.13;;
51556;SDS011;38766;53.194;5.532;2023-01-08T16:08:20;8.93;;;3.30;;
51556;SDS011;38766;53.194;5.532;2023-01-08T16:10:50;9.55;;;3.42;;
51556;SDS011;38766;53.194;5.532;2023-01-08T16:13:16;8.90;;;3.38;;
51556;SDS011;38766;53.194;5.532;2023-01-08T16:15:42;7.57;;;3.28;;
51556;SDS011;38766;53.194;5.532;2023-01-08T16:18:08;5.70;;;3.47;;
51556;SDS011;38766;53.194;5.532;2023-01-08T16:20:33;7.03;;;3.83;;
51556;SDS011;38766;53.194;5.532;2023-01-08T16:22:59;7.43;;;4.90;;